Map

Track Data

SID SEASON NUMBER BASIN SUBBASIN NAME ISO_TIME NATURE LAT LON WMO_WIND WMO_PRES WMO_AGENCY TRACK_TYPE DIST2LAND LANDFALL IFLAG USA_AGENCY USA_ATCF_ID USA_LAT USA_LON USA_RECORD USA_STATUS USA_WIND USA_PRES USA_SSHS USA_R34_NE USA_R34_SE USA_R34_SW USA_R34_NW USA_R50_NE USA_R50_SE USA_R50_SW USA_R50_NW USA_R64_NE USA_R64_SE USA_R64_SW USA_R64_NW USA_POCI USA_ROCI USA_RMW USA_EYE TOKYO_LAT TOKYO_LON TOKYO_GRADE TOKYO_WIND TOKYO_PRES TOKYO_R50_DIR TOKYO_R50_LONG TOKYO_R50_SHORT TOKYO_R30_DIR TOKYO_R30_LONG TOKYO_R30_SHORT TOKYO_LAND CMA_LAT CMA_LON CMA_CAT CMA_WIND CMA_PRES HKO_LAT HKO_LON HKO_CAT HKO_WIND HKO_PRES NEWDELHI_LAT NEWDELHI_LON NEWDELHI_GRADE NEWDELHI_WIND NEWDELHI_PRES NEWDELHI_CI NEWDELHI_DP NEWDELHI_POCI REUNION_LAT REUNION_LON REUNION_TYPE REUNION_WIND REUNION_PRES REUNION_TNUM REUNION_CI REUNION_RMW REUNION_R34_NE REUNION_R34_SE REUNION_R34_SW REUNION_R34_NW REUNION_R50_NE REUNION_R50_SE REUNION_R50_SW REUNION_R50_NW REUNION_R64_NE REUNION_R64_SE REUNION_R64_SW REUNION_R64_NW BOM_LAT BOM_LON BOM_TYPE BOM_WIND BOM_PRES BOM_TNUM BOM_CI BOM_RMW BOM_R34_NE BOM_R34_SE BOM_R34_SW BOM_R34_NW BOM_R50_NE BOM_R50_SE BOM_R50_SW BOM_R50_NW BOM_R64_NE BOM_R64_SE BOM_R64_SW BOM_R64_NW BOM_ROCI BOM_POCI BOM_EYE BOM_POS_METHOD BOM_PRES_METHOD NADI_LAT NADI_LON NADI_CAT NADI_WIND NADI_PRES WELLINGTON_LAT WELLINGTON_LON WELLINGTON_WIND WELLINGTON_PRES DS824_LAT DS824_LON DS824_STAGE DS824_WIND DS824_PRES TD9636_LAT TD9636_LON TD9636_STAGE TD9636_WIND TD9636_PRES TD9635_LAT TD9635_LON TD9635_WIND TD9635_PRES TD9635_ROCI NEUMANN_LAT NEUMANN_LON NEUMANN_CLASS NEUMANN_WIND NEUMANN_PRES MLC_LAT MLC_LON MLC_CLASS MLC_WIND MLC_PRES USA_GUST BOM_GUST BOM_GUST_PER REUNION_GUST REUNION_GUST_PER USA_SEAHGT USA_SEARAD_NE USA_SEARAD_SE USA_SEARAD_SW USA_SEARAD_NW STORM_SPEED STORM_DIR
1942188N15143 1942 24 WP MM NOT_NAMED 1942-07-06 12:00:00 NR 15.0000 143.000 main 1916 1823 __________O___ -1 15.0000 143.000 4 19 277
1942188N15143 1942 24 WP MM NOT_NAMED 1942-07-06 15:00:00 NR 15.1105 142.029 main 1812 1718 __________P___ -1 15.1105 142.029 4 19 277
1942188N15143 1942 24 WP MM NOT_NAMED 1942-07-06 18:00:00 NR 15.2149 141.096 main 1718 1636 __________P___ -1 15.2149 141.096 4 17 277
1942188N15143 1942 24 WP MM NOT_NAMED 1942-07-06 21:00:00 NR 15.3117 140.240 main 1625 1554 __________P___ -1 15.3117 140.240 4 16 277
1942188N15143 1942 24 WP MM NOT_NAMED 1942-07-07 00:00:00 NR 15.4000 139.500 main 1554 1493 __________O___ -1 15.4000 139.500 4 13 277
1942188N15143 1942 24 WP MM NOT_NAMED 1942-07-07 03:00:00 NR 15.4801 138.900 main 1493 1443 __________P___ -1 15.4801 138.900 4 11 278
1942188N15143 1942 24 WP MM NOT_NAMED 1942-07-07 06:00:00 NR 15.5549 138.402 main 1443 1402 __________P___ -1 15.5549 138.402 4 9 279
1942188N15143 1942 24 WP MM NOT_NAMED 1942-07-07 09:00:00 NR 15.6274 137.953 main 1402 1353 __________P___ -1 15.6274 137.953 4 9 279
1942188N15143 1942 24 WP MM NOT_NAMED 1942-07-07 12:00:00 NR 15.7000 137.500 main 1353 1304 __________O___ -1 15.7000 137.500 4 10 279
1942188N15143 1942 24 WP MM NOT_NAMED 1942-07-07 15:00:00 NR 15.7747 136.968 main 1304 1253 __________P___ -1 15.7747 136.968 4 10 278
1942188N15143 1942 24 WP MM NOT_NAMED 1942-07-07 18:00:00 NR 15.8496 136.422 main 1243 1196 __________P___ -1 15.8496 136.422 4 11 278
1942188N15143 1942 24 WP MM NOT_NAMED 1942-07-07 21:00:00 NR 15.9246 135.865 main 1196 1139 __________P___ -1 15.9246 135.865 4 11 278
1942188N15143 1942 24 WP MM NOT_NAMED 1942-07-08 00:00:00 NR 16.0000 135.300 main 1139 1093 __________O___ -1 16.0000 135.300 4 11 278
1942188N15143 1942 24 WP MM NOT_NAMED 1942-07-08 03:00:00 NR 16.0746 134.736 main 1083 1034 __________P___ -1 16.0746 134.736 4 11 278
1942188N15143 1942 24 WP MM NOT_NAMED 1942-07-08 06:00:00 NR 16.1494 134.165 main 1034 981 __________P___ -1 16.1494 134.165 4 11 278
1942188N15143 1942 24 WP MM NOT_NAMED 1942-07-08 09:00:00 NR 16.2245 133.586 main 981 929 __________P___ -1 16.2245 133.586 4 11 278
1942188N15143 1942 24 WP MM NOT_NAMED 1942-07-08 12:00:00 NR 16.3000 133.000 main 929 874 __________O___ -1 16.3000 133.000 4 11 276
1942188N15143 1942 24 WP MM NOT_NAMED 1942-07-08 15:00:00 NR 16.3501 132.415 main 879 834 __________P___ -1 16.3501 132.415 4 11 275
1942188N15143 1942 24 WP MM NOT_NAMED 1942-07-08 18:00:00 NR 16.4042 131.821 main 825 788 __________P___ -1 16.4042 131.821 4 12 277
1942188N15143 1942 24 WP MM NOT_NAMED 1942-07-08 21:00:00 NR 16.4812 131.217 main 780 730 __________P___ -1 16.4812 131.217 4 12 279
1942188N15143 1942 24 WP MM NOT_NAMED 1942-07-09 00:00:00 NR 16.6000 130.600 main 730 677 __________O___ -1 16.6000 130.600 4 13 283
1942188N15143 1942 24 WP MM NOT_NAMED 1942-07-09 03:00:00 NR 16.7536 129.940 main 673 623 __________P___ -1 16.7536 129.940 4 13 285
1942188N15143 1942 24 WP MM NOT_NAMED 1942-07-09 06:00:00 NR 16.9528 129.270 main 629 582 __________P___ -1 16.9528 129.270 4 13 289
1942188N15143 1942 24 WP MM NOT_NAMED 1942-07-09 09:00:00 NR 17.2005 128.615 main 582 557 __________P___ -1 17.2005 128.615 4 13 294
1942188N15143 1942 24 WP MM NOT_NAMED 1942-07-09 12:00:00 NR 17.5000 128.000 main 557 538 __________O___ -1 17.5000 128.000 4 13 300
1942188N15143 1942 24 WP MM NOT_NAMED 1942-07-09 15:00:00 NR 17.8490 127.437 main 527 485 __________P___ -1 17.8490 127.437 4 13 306
1942188N15143 1942 24 WP MM NOT_NAMED 1942-07-09 18:00:00 NR 18.2468 126.918 main 485 443 __________P___ -1 18.2468 126.918 4 13 311
1942188N15143 1942 24 WP MM NOT_NAMED 1942-07-09 21:00:00 NR 18.6711 126.440 main 433 397 __________P___ -1 18.6711 126.440 4 12 314
1942188N15143 1942 24 WP MM NOT_NAMED 1942-07-10 00:00:00 NR 19.1000 126.000 main 397 364 __________O___ -1 19.1000 126.000 4 12 315
1942188N15143 1942 24 WP MM NOT_NAMED 1942-07-10 03:00:00 NR 19.4872 125.588 main 368 347 __________P___ -1 19.4872 125.588 4 11 316
1942188N15143 1942 24 WP MM NOT_NAMED 1942-07-10 06:00:00 NR 19.8767 125.211 main 347 339 __________P___ -1 19.8767 125.211 4 11 319
1942188N15143 1942 24 WP MM NOT_NAMED 1942-07-10 09:00:00 NR 20.2779 124.854 main 345 336 __________P___ -1 20.2779 124.854 4 11 321
1942188N15143 1942 24 WP MM NOT_NAMED 1942-07-10 12:00:00 NR 20.7000 124.500 main 345 345 __________O___ -1 20.7000 124.500 4 11 323
1942188N15143 1942 24 WP MM NOT_NAMED 1942-07-10 15:00:00 NR 21.1610 124.145 main 339 298 __________P___ -1 21.1610 124.145 4 12 325
1942188N15143 1942 24 WP MM NOT_NAMED 1942-07-10 18:00:00 NR 21.6416 123.786 main 298 233 __________P___ -1 21.6416 123.786 4 12 325
1942188N15143 1942 24 WP MM NOT_NAMED 1942-07-10 21:00:00 NR 22.1265 123.410 main 233 173 __________P___ -1 22.1265 123.410 4 12 323
1942188N15143 1942 24 WP MM NOT_NAMED 1942-07-11 00:00:00 NR 22.6000 123.000 main 173 123 __________O___ -1 22.6000 123.000 4 12 319
1942188N15143 1942 24 WP MM NOT_NAMED 1942-07-11 03:00:00 NR 23.0350 122.551 main 123 69 __________P___ -1 23.0350 122.551 4 12 315
1942188N15143 1942 24 WP MM NOT_NAMED 1942-07-11 06:00:00 NR 23.4569 122.066 main 65 10 __________P___ -1 23.4569 122.066 4 12 312
1942188N15143 1942 24 WP MM NOT_NAMED 1942-07-11 09:00:00 NR 23.8754 121.548 main 0 0 __________P___ -1 23.8754 121.548 4 13 311
1942188N15143 1942 24 WP MM NOT_NAMED 1942-07-11 12:00:00 NR 24.3000 121.000 main 0 0 __________O___ -1 24.3000 121.000 4 14 312
1942188N15143 1942 24 WP MM NOT_NAMED 1942-07-11 15:00:00 NR 24.7867 120.450 main 37 30 __________P___ -1 24.7867 120.450 4 14 313
1942188N15143 1942 24 WP MM NOT_NAMED 1942-07-11 18:00:00 NR 25.2737 119.869 main 22 0 __________P___ -1 25.2737 119.869 4 14 311
1942188N15143 1942 24 WP MM NOT_NAMED 1942-07-11 21:00:00 NR 25.7239 119.253 main 0 0 __________P___ -1 25.7239 119.253 4 14 306
1942188N15143 1942 24 WP MM NOT_NAMED 1942-07-12 00:00:00 NR 26.1000 118.600 main 0 0 __________O___ -1 26.1000 118.600 4 14 298
1942188N15143 1942 24 WP MM NOT_NAMED 1942-07-12 03:00:00 NR 26.3579 117.905 main 0 0 __________P___ -1 26.3579 117.905 4 13 289
1942188N15143 1942 24 WP MM NOT_NAMED 1942-07-12 06:00:00 NR 26.5398 117.177 main 0 0 __________P___ -1 26.5398 117.177 4 14 284
1942188N15143 1942 24 WP MM NOT_NAMED 1942-07-12 09:00:00 NR 26.6766 116.436 main 0 0 __________P___ -1 26.6766 116.436 4 13 281
1942188N15143 1942 24 WP MM NOT_NAMED 1942-07-12 12:00:00 NR 26.8000 115.700 main 0 0 __________O___ -1 26.8000 115.700 4 13 281
1942188N15143 1942 24 WP MM NOT_NAMED 1942-07-12 15:00:00 NR 26.9357 114.982 main 0 0 __________P___ -1 26.9357 114.982 4 13 283
1942188N15143 1942 24 WP MM NOT_NAMED 1942-07-12 18:00:00 NR 27.0845 114.280 main 0 0 __________P___ -1 27.0845 114.280 4 13 284
1942188N15143 1942 24 WP MM NOT_NAMED 1942-07-12 21:00:00 NR 27.2411 113.588 main 0 0 __________P___ -1 27.2411 113.588 4 13 284
1942188N15143 1942 24 WP MM NOT_NAMED 1942-07-13 00:00:00 NR 27.4000 112.900 main 0 __________O___ -1 27.4000 112.900 4 13 285

Digital Typhoon Data and Search

About IBTrACS Database

This database is a web-friendly format of International Best Track Archive for Climate Stewardship (IBTrACS), a global best track data archive curated by NOAA dating back to 1842.

Updated: 2021-12-03